Time;durP1;ratioP1;P1;durP2;ratioP2;P2;SDS_P1;SDS_P2;PMS_P1;PMS_P2;Temp;Humidity;BMP_temperature;BMP_pressure;BME280_temperature;BME280_humidity;BME280_pressure;Samples;Min_cycle;Max_cycle;Signal;HPM_P1;HPM_P2
2021/12/31 00:00:31;;;;;;;3.07;0.30;;;13.80;99.90;13.80;100596.00;;;;5035634;27;117496;-69
2021/12/31 00:02:57;;;;;;;0.27;0.27;;;13.80;99.90;13.80;100600.00;;;;5036062;27;96532;-69
2021/12/31 00:05:23;;;;;;;0.67;0.50;;;13.80;99.90;13.80;100589.00;;;;5040468;27;87303;-69
2021/12/31 00:07:49;;;;;;;0.63;0.50;;;13.80;99.90;13.80;100592.00;;;;4998283;27;116455;-70
2021/12/31 00:10:14;;;;;;;0.57;0.40;;;13.80;99.90;13.80;100593.00;;;;5021054;27;87918;-70
2021/12/31 00:12:42;;;;;;;0.20;0.20;;;13.80;99.90;13.80;100590.00;;;;5035744;27;88813;-69
2021/12/31 00:15:09;;;;;;;0.50;0.50;;;13.80;99.90;13.80;100594.00;;;;5036398;27;88039;-69
2021/12/31 00:17:36;;;;;;;0.40;0.40;;;13.80;99.90;13.90;100583.00;;;;5035342;27;89116;-69
2021/12/31 00:20:08;;;;;;;1.80;0.37;;;13.80;99.90;13.90;100597.00;;;;5035306;27;88840;-70
2021/12/31 00:22:57;;;;;;;0.33;0.30;;;13.80;99.90;13.90;100592.00;;;;5018384;27;87854;-69
2021/12/31 00:25:22;;;;;;;0.30;0.30;;;13.80;99.90;13.90;100592.00;;;;5020821;27;87639;-69
2021/12/31 00:27:48;;;;;;;0.60;0.47;;;13.90;99.90;13.90;100596.00;;;;5035602;27;87964;-69
2021/12/31 00:30:15;;;;;;;1.20;0.70;;;13.90;99.90;14.00;100598.00;;;;5036421;27;93711;-69
2021/12/31 00:32:41;;;;;;;0.70;0.40;;;13.90;99.90;14.00;100605.00;;;;5035369;27;87805;-70
2021/12/31 00:35:08;;;;;;;0.70;0.40;;;13.90;99.90;14.00;100597.00;;;;5035145;27;108652;-70
2021/12/31 00:37:37;;;;;;;0.33;0.30;;;13.90;99.90;13.90;100606.00;;;;5016004;27;91880;-69
2021/12/31 00:40:08;;;;;;;0.13;0.13;;;13.90;99.90;14.00;100603.00;;;;5035987;27;89166;-69
2021/12/31 00:42:34;;;;;;;4.03;0.53;;;13.90;99.90;14.00;100590.00;;;;5035255;27;87812;-69
2021/12/31 00:45:00;;;;;;;0.60;0.20;;;13.90;99.90;14.00;100598.00;;;;5035829;27;88044;-69
2021/12/31 00:47:26;;;;;;;0.87;0.60;;;13.90;99.90;14.00;100593.00;;;;5035246;27;88167;-70
2021/12/31 00:49:51;;;;;;;3.70;0.93;;;13.90;99.90;14.00;100601.00;;;;4999760;27;91933;-69
2021/12/31 00:52:17;;;;;;;0.20;0.20;;;13.90;99.90;14.00;100605.00;;;;5034410;27;109043;-70
2021/12/31 00:54:43;;;;;;;0.50;0.50;;;13.90;99.90;13.90;100612.00;;;;5035095;27;108293;-69
2021/12/31 00:57:10;;;;;;;0.63;0.40;;;13.90;99.90;13.90;100603.00;;;;5035661;27;88017;-70
2021/12/31 00:59:35;;;;;;;0.23;0.23;;;13.90;99.90;14.00;100615.00;;;;5035377;27;88280;-69
2021/12/31 01:02:04;;;;;;;1.37;0.60;;;13.90;99.90;14.00;100611.00;;;;5034210;27;109992;-70
2021/12/31 01:04:32;;;;;;;0.37;0.30;;;13.90;99.90;14.00;100617.00;;;;5016901;27;88102;-70
2021/12/31 01:06:58;;;;;;;0.77;0.60;;;13.90;99.90;14.00;100616.00;;;;5035665;27;87990;-70
2021/12/31 01:09:25;;;;;;;0.40;0.30;;;14.00;99.90;14.00;100612.00;;;;5035128;27;88173;-71
2021/12/31 01:11:52;;;;;;;0.30;0.30;;;13.90;99.90;14.00;100616.00;;;;5035487;27;87803;-69
2021/12/31 01:14:40;;;;;;;1.17;0.60;;;14.00;99.90;14.00;100610.00;;;;5034847;27;87889;-69
2021/12/31 01:17:11;;;;;;;0.33;0.33;;;14.00;99.90;14.00;100610.00;;;;5035528;27;88077;-70
2021/12/31 01:19:48;;;;;;;1.13;0.77;;;13.90;99.90;13.90;100612.00;;;;5022849;27;87121;-70
2021/12/31 01:22:29;;;;;;;0.33;0.30;;;13.90;99.90;13.90;100616.00;;;;5035011;27;87793;-69
2021/12/31 01:24:55;;;;;;;0.43;0.43;;;13.90;99.90;13.80;100615.00;;;;5015989;27;88095;-69
2021/12/31 01:27:21;;;;;;;0.37;0.20;;;13.80;99.90;13.70;100622.00;;;;5034569;27;89493;-69
2021/12/31 01:29:47;;;;;;;1.43;0.40;;;13.70;99.90;13.60;100622.00;;;;5034145;27;103492;-70
2021/12/31 01:32:13;;;;;;;1.07;0.33;;;13.70;99.90;13.60;100617.00;;;;5035370;27;87715;-69
2021/12/31 01:34:40;;;;;;;0.60;0.50;;;13.60;99.90;13.50;100618.00;;;;5035931;27;87662;-70
2021/12/31 01:37:07;;;;;;;0.30;0.30;;;13.50;99.90;13.50;100622.00;;;;5035520;27;88247;-69
2021/12/31 01:39:32;;;;;;;0.33;0.33;;;13.50;99.90;13.40;100628.00;;;;5034487;27;88753;-70
2021/12/31 01:41:59;;;;;;;0.60;0.40;;;13.40;99.90;13.30;100624.00;;;;5035415;27;87620;-71
2021/12/31 01:44:34;;;;;;;0.50;0.37;;;13.40;99.90;13.30;100630.00;;;;5036561;27;86871;-70
2021/12/31 01:47:06;;;;;;;1.30;0.30;;;13.30;99.90;13.20;100620.00;;;;5038595;27;87850;-72
2021/12/31 01:49:36;;;;;;;1.80;0.57;;;13.20;99.90;13.10;100628.00;;;;5019573;27;88181;-70
2021/12/31 01:52:03;;;;;;;1.43;0.60;;;13.20;99.90;13.10;100619.00;;;;5037926;27;88742;-71
2021/12/31 01:54:30;;;;;;;0.30;0.30;;;13.10;99.90;13.10;100627.00;;;;5018965;27;92966;-70
2021/12/31 01:56:58;;;;;;;0.80;0.20;;;13.10;99.90;13.10;100613.00;;;;5038272;27;98076;-70
2021/12/31 01:59:24;;;;;;;2.53;0.43;;;13.10;99.90;13.10;100617.00;;;;5018738;27;96281;-71
2021/12/31 02:01:50;;;;;;;0.23;0.23;;;13.10;99.90;13.10;100623.00;;;;5038184;27;87717;-70
2021/12/31 02:04:16;;;;;;;0.93;0.30;;;13.10;99.90;13.10;100620.00;;;;5017854;27;107938;-69
2021/12/31 02:06:42;;;;;;;0.53;0.50;;;13.10;99.90;13.20;100623.00;;;;5036605;27;118558;-72
2021/12/31 02:09:07;;;;;;;5.00;0.50;;;13.10;99.90;13.20;100623.00;;;;5036272;27;117028;-70
2021/12/31 02:11:33;;;;;;;0.40;0.30;;;13.20;99.90;13.30;100625.00;;;;5038606;27;87939;-70
2021/12/31 02:14:02;;;;;;;0.20;0.20;;;13.20;99.90;13.30;100618.00;;;;5037622;27;87685;-70
2021/12/31 02:16:31;;;;;;;1.13;0.40;;;13.30;99.90;13.40;100618.00;;;;5038008;27;89338;-69
2021/12/31 02:18:58;;;;;;;0.30;0.30;;;13.30;99.90;13.40;100626.00;;;;5036929;27;89455;-70
2021/12/31 02:21:24;;;;;;;0.40;0.30;;;13.40;99.90;13.50;100628.00;;;;5033435;27;87651;-69
2021/12/31 02:23:56;;;;;;;0.20;0.20;;;13.40;99.90;13.50;100634.00;;;;5033776;27;87628;-70
2021/12/31 02:26:22;;;;;;;0.70;0.50;;;13.50;99.90;13.60;100618.00;;;;5019412;27;87831;-70
2021/12/31 02:28:47;;;;;;;0.20;0.20;;;13.50;99.90;13.60;100630.00;;;;5037538;27;88092;-70
2021/12/31 02:31:13;;;;;;;0.83;0.40;;;13.60;99.90;13.60;100633.00;;;;5034247;27;109515;-70
2021/12/31 02:33:39;;;;;;;1.00;0.60;;;13.60;99.90;13.60;100640.00;;;;5031320;27;108972;-71
2021/12/31 02:36:07;;;;;;;2.93;0.40;;;13.60;99.90;13.70;100626.00;;;;5018209;27;89569;-71
2021/12/31 02:38:33;;;;;;;0.40;0.20;;;13.60;99.90;13.70;100632.00;;;;5037125;27;88442;-71
2021/12/31 02:40:59;;;;;;;0.40;0.30;;;13.60;99.90;13.70;100630.00;;;;5035465;27;108849;-71
2021/12/31 02:43:25;;;;;;;0.50;0.33;;;13.60;99.90;13.70;100629.00;;;;5024996;27;107186;-70
2021/12/31 02:45:50;;;;;;;0.20;0.20;;;13.60;99.90;13.70;100627.00;;;;5036587;27;117588;-70
2021/12/31 02:48:25;;;;;;;0.57;0.10;;;13.60;99.90;13.70;100632.00;;;;5017645;27;88696;-70
2021/12/31 02:50:53;;;;;;;0.73;0.33;;;13.60;99.90;13.70;100626.00;;;;5019178;27;87700;-70
2021/12/31 02:53:39;;;;;;;0.23;0.23;;;13.60;99.90;13.70;100634.00;;;;5036684;27;87846;-69
2021/12/31 02:56:12;;;;;;;0.10;0.10;;;13.70;99.90;13.70;100638.00;;;;5018249;27;87659;-69
2021/12/31 02:58:40;;;;;;;0.20;0.20;;;13.70;99.90;13.70;100630.00;;;;5018725;27;87888;-69
2021/12/31 03:01:08;;;;;;;0.60;0.60;;;13.70;99.90;13.80;100628.00;;;;5034071;27;87778;-69
2021/12/31 03:03:36;;;;;;;0.33;0.30;;;13.70;99.90;13.80;100640.00;;;;5025095;27;87732;-69
2021/12/31 03:06:03;;;;;;;0.30;0.30;;;13.70;99.90;13.80;100632.00;;;;5035822;27;103862;-69
2021/12/31 03:08:37;;;;;;;0.40;0.30;;;13.70;99.90;13.80;100624.00;;;;5018145;27;88730;-68
2021/12/31 03:11:06;;;;;;;0.30;0.30;;;14.10;99.90;13.90;100619.00;;;;5000076;27;88178;-69
2021/12/31 03:13:34;;;;;;;0.20;0.10;;;13.80;99.90;13.90;100620.00;;;;5030114;27;87496;-69
2021/12/31 03:16:00;;;;;;;0.10;0.10;;;13.80;99.90;13.90;100625.00;;;;5036787;27;102603;-69
2021/12/31 03:18:28;;;;;;;2.37;0.37;;;13.80;99.90;13.90;100623.00;;;;5017346;27;92630;-69
2021/12/31 03:20:57;;;;;;;0.10;0.10;;;13.80;99.90;13.90;100618.00;;;;5017826;27;92309;-69
2021/12/31 03:23:28;;;;;;;0.30;0.30;;;13.90;99.90;13.90;100611.00;;;;5029721;27;87035;-69
2021/12/31 03:25:54;;;;;;;0.20;0.20;;;13.90;99.90;13.90;100608.00;;;;5037113;27;88512;-69
2021/12/31 03:28:21;;;;;;;0.20;0.20;;;13.90;99.90;14.00;100607.00;;;;5035881;27;104039;-69
2021/12/31 03:30:48;;;;;;;0.20;0.20;;;13.90;99.90;14.00;100605.00;;;;5036699;27;88945;-69
2021/12/31 03:33:14;;;;;;;0.10;0.10;;;13.90;99.90;13.90;100599.00;;;;5024864;27;88273;-69
2021/12/31 03:35:40;;;;;;;0.53;0.30;;;13.90;99.90;13.90;100605.00;;;;5036304;27;89087;-69
2021/12/31 03:38:06;;;;;;;0.20;0.20;;;13.90;99.90;13.90;100615.00;;;;5017934;27;88171;-70
2021/12/31 03:40:32;;;;;;;1.00;0.30;;;13.80;99.90;13.80;100605.00;;;;5036615;27;87675;-70
2021/12/31 03:42:58;;;;;;;0.30;0.20;;;13.80;99.90;13.80;100599.00;;;;5019873;27;87943;-70
2021/12/31 03:45:23;;;;;;;0.33;0.20;;;13.80;99.90;13.80;100601.00;;;;5036360;27;94638;-70
2021/12/31 03:47:49;;;;;;;0.30;0.30;;;13.70;99.90;13.70;100612.00;;;;5035448;27;117583;-69
2021/12/31 03:50:15;;;;;;;0.60;0.30;;;13.70;99.90;13.70;100609.00;;;;5035898;27;110880;-69
2021/12/31 03:52:41;;;;;;;0.30;0.20;;;13.60;99.90;13.60;100609.00;;;;5019278;27;108017;-70
2021/12/31 03:55:08;;;;;;;0.23;0.20;;;13.50;99.90;13.40;100608.00;;;;5035279;27;119217;-70
2021/12/31 03:57:34;;;;;;;0.40;0.23;;;13.50;99.90;13.30;100617.00;;;;5035985;27;89603;-71
2021/12/31 04:00:00;;;;;;;3.23;0.40;;;13.40;99.90;13.20;100621.00;;;;5035558;27;112504;-71
2021/12/31 04:02:26;;;;;;;0.10;0.10;;;13.30;99.90;13.20;100628.00;;;;5019487;27;87701;-70
2021/12/31 04:04:52;;;;;;;0.73;0.47;;;13.20;99.90;13.10;100624.00;;;;5016499;27;115851;-71
2021/12/31 04:07:19;;;;;;;0.53;0.40;;;13.10;99.90;13.00;100619.00;;;;5034788;27;88715;-71
2021/12/31 04:09:45;;;;;;;0.20;0.20;;;13.00;99.90;12.90;100616.00;;;;5036863;27;87904;-70
2021/12/31 04:12:10;;;;;;;0.77;0.27;;;12.90;99.90;12.80;100617.00;;;;5007294;27;108792;-70
2021/12/31 04:14:36;;;;;;;0.30;0.30;;;12.90;99.90;12.80;100615.00;;;;5035130;27;117701;-70
2021/12/31 04:17:02;;;;;;;1.77;0.40;;;12.80;99.90;12.70;100616.00;;;;5034314;27;117681;-71
2021/12/31 04:19:28;;;;;;;1.70;0.27;;;12.70;99.90;12.60;100606.00;;;;5035445;27;88620;-70
2021/12/31 04:21:53;;;;;;;0.63;0.40;;;12.60;99.90;12.50;100608.00;;;;5018466;27;109431;-70
2021/12/31 04:27:04;;;;;;;0.13;0.13;;;12.50;99.90;12.40;100603.00;;;;5034367;27;87989;-70
2021/12/31 04:29:29;;;;;;;0.30;0.20;;;12.40;99.90;12.30;100608.00;;;;5017175;27;96244;-70
2021/12/31 04:31:55;;;;;;;0.20;0.20;;;12.30;99.90;12.30;100603.00;;;;5026112;27;109975;-69
2021/12/31 04:34:21;;;;;;;0.30;0.20;;;12.30;99.90;12.30;100603.00;;;;5036185;27;88352;-69
2021/12/31 04:36:47;;;;;;;5.80;0.40;;;12.30;99.90;12.20;100602.00;;;;5035226;27;117719;-69
2021/12/31 04:39:12;;;;;;;0.37;0.30;;;12.30;99.90;12.20;100602.00;;;;5035833;27;87568;-69
2021/12/31 04:41:38;;;;;;;0.87;0.30;;;12.20;99.90;12.20;100603.00;;;;5022230;27;107775;-69
2021/12/31 04:44:04;;;;;;;0.50;0.50;;;12.30;99.90;12.20;100605.00;;;;5029811;27;117881;-70
2021/12/31 04:46:30;;;;;;;0.40;0.30;;;12.20;99.90;12.20;100615.00;;;;5035429;27;100331;-70
2021/12/31 04:48:55;;;;;;;0.43;0.30;;;12.20;99.90;12.20;100612.00;;;;5034830;27;110296;-69
2021/12/31 04:51:21;;;;;;;0.43;0.37;;;12.20;99.90;12.20;100614.00;;;;5031056;27;108322;-70
2021/12/31 04:53:47;;;;;;;0.37;0.37;;;12.20;99.90;12.10;100623.00;;;;5030185;27;117642;-70
2021/12/31 04:56:12;;;;;;;0.10;0.10;;;12.20;99.90;12.10;100626.00;;;;5034822;27;109538;-70
2021/12/31 04:58:38;;;;;;;1.90;0.60;;;12.20;99.90;12.20;100630.00;;;;5035324;27;99931;-70
2021/12/31 05:01:03;;;;;;;0.80;0.30;;;12.10;99.90;12.20;100648.00;;;;4998113;27;108059;-70
2021/12/31 05:03:29;;;;;;;2.00;0.40;;;12.20;99.90;12.20;100637.00;;;;5026113;27;118708;-70
2021/12/31 05:05:55;;;;;;;0.20;0.10;;;12.20;99.90;12.30;100647.00;;;;5015411;27;118048;-70
2021/12/31 05:08:20;;;;;;;0.27;0.27;;;12.30;99.90;12.40;100654.00;;;;5034147;27;110443;-70
2021/12/31 05:10:46;;;;;;;1.07;0.40;;;12.30;99.90;12.40;100650.00;;;;5035239;27;109365;-70
2021/12/31 05:13:15;;;;;;;1.30;0.20;;;12.40;99.90;12.50;100642.00;;;;5016823;27;118482;-69
2021/12/31 05:15:46;;;;;;;0.20;0.20;;;12.40;99.90;12.50;100638.00;;;;5017108;27;88482;-69
2021/12/31 05:18:13;;;;;;;2.20;0.30;;;12.50;99.90;12.60;100647.00;;;;5035710;27;87737;-70
2021/12/31 05:20:41;;;;;;;1.00;0.67;;;12.50;99.90;12.60;100634.00;;;;5039178;27;87808;-69
2021/12/31 05:23:07;;;;;;;1.17;0.60;;;12.60;99.90;12.70;100629.00;;;;5022109;27;91216;-69
2021/12/31 05:25:33;;;;;;;0.73;0.47;;;12.70;99.90;12.70;100638.00;;;;5039445;27;88572;-69
2021/12/31 05:27:59;;;;;;;0.93;0.60;;;12.70;99.90;12.70;100623.00;;;;5038295;27;103323;-69
2021/12/31 05:30:27;;;;;;;0.30;0.30;;;12.70;99.90;12.80;100626.00;;;;5037523;27;110116;-69
2021/12/31 05:32:53;;;;;;;0.87;0.40;;;12.70;99.90;12.80;100628.00;;;;5029121;27;89778;-69
2021/12/31 05:35:22;;;;;;;1.23;0.30;;;12.70;99.90;12.80;100633.00;;;;5038517;27;89385;-69
2021/12/31 05:37:47;;;;;;;1.87;0.30;;;12.80;99.90;12.80;100636.00;;;;5037413;27;110622;-69
2021/12/31 05:40:13;;;;;;;0.53;0.40;;;12.40;99.90;12.90;100623.00;;;;5038739;27;87769;-69
2021/12/31 05:42:39;;;;;;;0.43;0.37;;;12.80;99.90;12.90;100638.00;;;;5037222;27;116257;-70
2021/12/31 05:45:05;;;;;;;0.50;0.30;;;12.90;99.90;13.00;100625.00;;;;5030713;27;88117;-70
2021/12/31 05:47:31;;;;;;;0.20;0.20;;;12.90;99.90;13.00;100621.00;;;;5038639;27;87919;-70
2021/12/31 05:49:57;;;;;;;1.63;0.60;;;13.00;99.90;13.10;100627.00;;;;5038751;27;87070;-69
2021/12/31 05:52:22;;;;;;;2.90;0.43;;;13.00;99.90;13.10;100628.00;;;;5037213;27;109745;-69
2021/12/31 05:54:48;;;;;;;0.30;0.30;;;13.00;99.90;13.10;100624.00;;;;5018291;27;116956;-69
2021/12/31 05:57:14;;;;;;;5.70;0.60;;;13.10;99.90;13.20;100631.00;;;;5037596;27;105086;-70
2021/12/31 05:59:39;;;;;;;0.30;0.20;;;13.10;99.90;13.20;100627.00;;;;5037304;27;109590;-70
2021/12/31 06:02:05;;;;;;;1.77;0.30;;;13.10;99.90;13.20;100640.00;;;;5037160;27;116862;-70
2021/12/31 06:04:31;;;;;;;0.20;0.20;;;13.10;99.90;13.20;100635.00;;;;5019771;27;116863;-69
2021/12/31 06:06:57;;;;;;;0.87;0.30;;;13.20;99.90;13.30;100633.00;;;;5038228;27;108420;-69
2021/12/31 06:09:23;;;;;;;1.03;0.37;;;13.20;99.90;13.30;100637.00;;;;5038034;27;88006;-69
2021/12/31 06:11:49;;;;;;;0.30;0.30;;;13.30;99.90;13.30;100637.00;;;;5019306;27;88203;-69
2021/12/31 06:14:15;;;;;;;0.20;0.20;;;13.30;99.90;13.40;100645.00;;;;5020437;27;115979;-70
2021/12/31 06:16:41;;;;;;;3.40;0.50;;;13.30;99.90;13.40;100642.00;;;;5037744;27;100050;-69
2021/12/31 06:19:12;;;;;;;0.93;0.43;;;13.40;99.90;13.40;100643.00;;;;5038480;27;88366;-70
2021/12/31 06:21:41;;;;;;;0.40;0.40;;;13.40;99.90;13.40;100642.00;;;;5037801;27;88747;-70
2021/12/31 06:24:08;;;;;;;0.20;0.20;;;13.40;99.90;13.40;100651.00;;;;5020747;27;89320;-69
2021/12/31 06:26:34;;;;;;;0.30;0.30;;;13.40;99.90;13.40;100646.00;;;;5002414;27;88077;-69
2021/12/31 06:29:00;;;;;;;0.30;0.30;;;13.40;99.90;13.40;100648.00;;;;5036924;27;87799;-70
2021/12/31 06:31:26;;;;;;;0.20;0.20;;;13.40;99.90;13.30;100641.00;;;;5036470;27;88053;-69
2021/12/31 06:33:52;;;;;;;0.20;0.20;;;13.30;99.90;13.30;100636.00;;;;5024756;27;88299;-69
2021/12/31 06:36:22;;;;;;;0.53;0.30;;;13.30;99.90;13.30;100659.00;;;;5035844;27;109067;-69
2021/12/31 06:38:50;;;;;;;0.30;0.30;;;13.30;99.90;13.30;100651.00;;;;5016586;27;87102;-69
2021/12/31 06:41:16;;;;;;;7.10;0.33;;;13.30;99.90;13.30;100643.00;;;;5034199;27;89236;-70
2021/12/31 06:43:43;;;;;;;0.30;0.23;;;13.30;99.90;13.30;100642.00;;;;5026103;27;87996;-69
2021/12/31 06:46:09;;;;;;;0.10;0.10;;;13.30;99.90;13.30;100654.00;;;;5032769;27;88798;-70
2021/12/31 06:48:34;;;;;;;0.37;0.30;;;13.30;99.90;13.30;100660.00;;;;5033626;27;96992;-69
2021/12/31 06:51:00;;;;;;;1.20;0.43;;;13.30;99.90;13.30;100668.00;;;;5015002;27;116785;-70
2021/12/31 06:53:26;;;;;;;0.47;0.30;;;13.30;99.90;13.30;100672.00;;;;5028361;27;115698;-70
2021/12/31 06:55:51;;;;;;;3.10;0.40;;;13.30;99.90;13.30;100673.00;;;;5031308;27;88149;-70
2021/12/31 06:58:17;;;;;;;0.93;0.40;;;13.20;99.90;13.30;100680.00;;;;5033805;27;88092;-70
2021/12/31 07:00:43;;;;;;;0.57;0.20;;;13.20;99.90;13.20;100682.00;;;;5033788;27;106986;-69
2021/12/31 07:03:13;;;;;;;2.70;0.50;;;13.20;99.90;13.20;100699.00;;;;5030212;27;117420;-70
2021/12/31 07:05:43;;;;;;;0.27;0.20;;;13.20;99.90;13.20;100687.00;;;;5029372;27;87517;-69
2021/12/31 07:08:10;;;;;;;0.23;0.23;;;13.20;99.90;13.20;100690.00;;;;5034124;27;87796;-69
2021/12/31 07:10:36;;;;;;;0.20;0.20;;;13.20;99.90;13.20;100680.00;;;;5033370;27;100604;-69
2021/12/31 07:13:05;;;;;;;0.20;0.20;;;13.20;99.90;13.20;100690.00;;;;5031548;27;89147;-69
2021/12/31 07:15:31;;;;;;;0.60;0.40;;;13.20;99.90;13.20;100683.00;;;;5027978;27;87555;-70
2021/12/31 07:17:57;;;;;;;0.20;0.20;;;13.20;99.90;13.20;100687.00;;;;5015353;27;87908;-70
2021/12/31 07:20:23;;;;;;;0.30;0.17;;;13.20;99.90;13.20;100686.00;;;;5033130;27;117836;-70
2021/12/31 07:22:49;;;;;;;0.60;0.40;;;13.20;99.90;13.20;100678.00;;;;5032186;27;117675;-70
2021/12/31 07:25:15;;;;;;;0.30;0.27;;;13.20;99.90;13.20;100685.00;;;;5017682;27;87851;-69
2021/12/31 07:27:41;;;;;;;0.27;0.27;;;13.20;99.90;13.30;100681.00;;;;5035057;27;87096;-70
2021/12/31 07:30:07;;;;;;;0.50;0.30;;;13.20;99.90;13.30;100688.00;;;;5033629;27;87846;-69
2021/12/31 07:32:37;;;;;;;0.90;0.60;;;13.20;99.90;13.30;100683.00;;;;5032901;27;102770;-70
2021/12/31 07:35:04;;;;;;;0.30;0.30;;;13.20;99.90;13.30;100681.00;;;;5012024;27;88811;-69
2021/12/31 07:37:30;;;;;;;0.20;0.20;;;13.30;99.90;13.30;100681.00;;;;5032500;27;92257;-69
2021/12/31 07:40:01;;;;;;;0.57;0.37;;;13.30;99.90;13.40;100678.00;;;;5032745;27;117933;-69
2021/12/31 07:42:27;;;;;;;0.43;0.30;;;13.30;99.90;13.40;100675.00;;;;5006115;27;88094;-69
2021/12/31 07:44:52;;;;;;;0.30;0.30;;;13.40;99.90;13.40;100680.00;;;;5025066;27;87946;-70
2021/12/31 07:47:19;;;;;;;0.70;0.30;;;13.40;99.90;13.50;100681.00;;;;5032925;27;108820;-70
2021/12/31 07:49:44;;;;;;;0.50;0.40;;;13.40;99.90;13.50;100680.00;;;;5014069;27;89664;-70
2021/12/31 07:52:10;;;;;;;0.93;0.50;;;13.50;99.90;13.50;100677.00;;;;5013711;27;116971;-69
2021/12/31 07:54:36;;;;;;;4.07;0.63;;;13.40;99.90;13.50;100686.00;;;;5024265;27;106037;-70
2021/12/31 07:57:02;;;;;;;0.40;0.40;;;13.50;99.90;13.50;100694.00;;;;5014661;27;87931;-69
2021/12/31 07:59:27;;;;;;;0.80;0.53;;;13.50;99.90;13.60;100698.00;;;;5032345;27;92192;-70
2021/12/31 08:01:53;;;;;;;1.07;0.30;;;13.50;99.90;13.60;100697.00;;;;5032347;27;119603;-70
2021/12/31 08:04:19;;;;;;;1.67;0.90;;;13.50;99.90;13.60;100693.00;;;;5002059;27;88165;-70
2021/12/31 08:06:44;;;;;;;0.20;0.20;;;13.50;99.90;13.60;100686.00;;;;4993188;27;108430;-69
2021/12/31 08:09:10;;;;;;;0.37;0.37;;;13.60;99.90;13.60;100675.00;;;;5031094;27;119230;-69
2021/12/31 08:11:37;;;;;;;0.40;0.40;;;13.60;99.90;13.60;100693.00;;;;5032344;27;106026;-69
2021/12/31 08:14:04;;;;;;;0.30;0.23;;;13.60;99.90;13.60;100667.00;;;;5024340;27;87814;-69
2021/12/31 08:16:30;;;;;;;0.50;0.37;;;13.60;99.90;13.70;100684.00;;;;5034083;27;89242;-70
2021/12/31 08:18:55;;;;;;;0.40;0.40;;;13.60;99.90;13.70;100683.00;;;;5032995;27;88234;-69
2021/12/31 08:21:21;;;;;;;2.97;0.50;;;13.60;99.90;13.70;100686.00;;;;5013280;27;117406;-70
2021/12/31 08:23:47;;;;;;;0.40;0.40;;;13.60;99.90;13.70;100683.00;;;;5023712;27;109631;-68
2021/12/31 08:26:14;;;;;;;1.30;0.50;;;13.60;99.90;13.70;100683.00;;;;5032966;27;88004;-70
2021/12/31 08:28:39;;;;;;;1.40;0.43;;;13.70;99.90;13.70;100672.00;;;;5033045;27;88336;-69
2021/12/31 08:31:06;;;;;;;1.50;0.57;;;13.70;99.90;13.70;100674.00;;;;5027978;27;88155;-69
2021/12/31 08:33:31;;;;;;;1.70;0.50;;;13.70;99.90;13.70;100671.00;;;;5023957;27;95069;-69
2021/12/31 08:35:57;;;;;;;0.67;0.60;;;13.70;99.90;13.70;100681.00;;;;5030321;27;88048;-69
2021/12/31 08:38:24;;;;;;;0.40;0.30;;;13.70;99.90;13.70;100672.00;;;;5031104;27;112852;-69
2021/12/31 08:40:50;;;;;;;0.30;0.30;;;13.70;99.90;13.80;100679.00;;;;5033616;27;88945;-69
2021/12/31 08:43:16;;;;;;;0.43;0.43;;;13.70;99.90;13.80;100673.00;;;;5023346;27;89047;-70
2021/12/31 08:45:42;;;;;;;0.50;0.50;;;13.70;99.90;13.80;100668.00;;;;5027076;27;108258;-69
2021/12/31 08:48:08;;;;;;;0.40;0.40;;;13.70;99.90;13.80;100666.00;;;;5031009;27;119801;-70
2021/12/31 08:50:35;;;;;;;1.07;0.70;;;13.80;99.90;13.80;100673.00;;;;5032300;27;88871;-69
2021/12/31 08:53:03;;;;;;;1.63;0.80;;;13.80;99.90;13.80;100672.00;;;;5012084;27;87618;-69
2021/12/31 08:55:28;;;;;;;1.80;0.50;;;13.80;99.90;13.90;100676.00;;;;5029758;27;88188;-69
2021/12/31 08:57:55;;;;;;;4.17;0.87;;;13.80;99.90;13.90;100673.00;;;;5027024;27;118989;-69
2021/12/31 09:00:21;;;;;;;0.60;0.60;;;13.80;99.90;13.90;100675.00;;;;5017267;27;88264;-68
2021/12/31 09:02:49;;;;;;;5.20;0.70;;;13.80;99.90;13.90;100670.00;;;;5035494;27;110334;-68
2021/12/31 09:05:16;;;;;;;4.63;0.83;;;13.90;99.90;13.90;100675.00;;;;5027858;27;86899;-69
2021/12/31 09:07:42;;;;;;;0.77;0.70;;;13.90;99.90;14.00;100677.00;;;;5035484;27;88999;-69
2021/12/31 09:10:09;;;;;;;1.53;0.40;;;14.30;99.90;14.00;100685.00;;;;5028454;27;102908;-69
2021/12/31 09:12:36;;;;;;;0.73;0.57;;;13.90;99.90;14.00;100684.00;;;;5034824;27;88811;-70
2021/12/31 09:15:03;;;;;;;0.53;0.50;;;13.90;99.90;14.00;100696.00;;;;5014906;27;87766;-69
2021/12/31 09:17:29;;;;;;;0.83;0.53;;;13.90;99.90;14.00;100695.00;;;;5035315;27;94589;-71
2021/12/31 09:19:54;;;;;;;0.70;0.63;;;14.00;99.90;14.00;100681.00;;;;5034857;27;117897;-69
2021/12/31 09:22:20;;;;;;;0.40;0.30;;;13.90;99.90;14.00;100681.00;;;;5034092;27;110640;-69
2021/12/31 09:24:48;;;;;;;0.63;0.50;;;13.90;99.90;14.00;100691.00;;;;5026683;27;87884;-69
2021/12/31 09:27:14;;;;;;;0.40;0.40;;;13.90;99.90;14.00;100701.00;;;;5035634;27;88432;-69
2021/12/31 09:29:39;;;;;;;0.77;0.50;;;14.00;99.90;14.00;100690.00;;;;5017131;27;90002;-69
2021/12/31 09:32:06;;;;;;;0.40;0.40;;;13.90;99.90;14.00;100694.00;;;;5034026;27;104970;-69
2021/12/31 09:34:32;;;;;;;0.90;0.50;;;14.00;99.90;14.00;100686.00;;;;5026778;27;87633;-69
2021/12/31 09:36:58;;;;;;;0.37;0.37;;;14.00;99.90;14.00;100682.00;;;;5033906;27;118382;-69
2021/12/31 09:39:23;;;;;;;0.30;0.30;;;14.00;99.90;14.00;100676.00;;;;5034367;27;117992;-68
2021/12/31 09:41:49;;;;;;;1.60;0.40;;;14.00;99.90;14.00;100670.00;;;;5034759;27;110067;-69
2021/12/31 09:44:15;;;;;;;1.17;0.67;;;13.90;99.90;14.00;100669.00;;;;5017622;27;100315;-69
2021/12/31 09:46:42;;;;;;;0.40;0.40;;;14.00;99.90;14.00;100680.00;;;;5035307;27;89044;-69
2021/12/31 09:49:08;;;;;;;1.47;0.63;;;14.00;99.90;14.10;100675.00;;;;5034139;27;88838;-69
2021/12/31 09:51:34;;;;;;;1.30;0.73;;;14.00;99.90;14.20;100681.00;;;;5027406;27;87860;-71
2021/12/31 09:54:00;;;;;;;1.77;0.50;;;14.10;99.90;14.30;100671.00;;;;5012842;27;108369;-72
2021/12/31 09:56:27;;;;;;;0.90;0.63;;;14.20;99.90;14.40;100669.00;;;;5035249;27;88853;-73
2021/12/31 09:58:53;;;;;;;0.77;0.60;;;14.30;99.90;14.50;100660.00;;;;5015459;27;95651;-73
2021/12/31 10:01:19;;;;;;;0.87;0.73;;;14.40;99.90;14.60;100649.00;;;;5034618;27;88682;-73
2021/12/31 10:03:56;;;;;;;0.87;0.50;;;14.50;99.90;14.70;100661.00;;;;5021595;27;89960;-74
2021/12/31 10:06:21;;;;;;;2.00;0.57;;;14.60;99.90;14.90;100658.00;;;;5003891;27;87931;-72
2021/12/31 10:08:48;;;;;;;0.65;0.38;;;14.90;99.90;15.00;100653.00;;;;5011635;27;91128;-73
2021/12/31 10:11:23;;;;;;;0.52;0.40;;;14.90;99.90;15.10;100660.00;;;;5034231;27;109966;-73
2021/12/31 10:13:55;;;;;;;0.43;0.43;;;14.90;99.90;15.10;100631.00;;;;5012276;27;87823;-73
2021/12/31 10:16:26;;;;;;;1.27;0.70;;;15.00;99.90;15.20;100650.00;;;;5018804;27;88469;-73
2021/12/31 10:19:18;;;;;;;1.05;0.60;;;15.10;99.90;15.20;100655.00;;;;5033756;27;88316;-72
2021/12/31 10:21:48;;;;;;;0.93;0.60;;;15.10;99.90;15.20;100639.00;;;;5016195;27;87827;-73
2021/12/31 10:24:38;;;;;;;3.47;0.50;;;15.10;99.90;15.20;100653.00;;;;5025761;27;87810;-74
2021/12/31 10:27:09;;;;;;;1.08;0.82;;;15.20;99.90;15.30;100643.00;;;;5015121;27;88807;-74
2021/12/31 10:30:06;;;;;;;1.35;0.68;;;15.20;99.90;15.30;100644.00;;;;5034636;27;89285;-74
2021/12/31 10:32:36;;;;;;;0.40;0.40;;;15.20;99.90;15.40;100629.00;;;;5015966;27;88130;-74
2021/12/31 10:35:29;;;;;;;0.60;0.40;;;15.80;99.90;15.40;100639.00;;;;5025972;27;87812;-75
2021/12/31 10:38:01;;;;;;;0.28;0.20;;;15.30;99.90;15.50;100640.00;;;;5022586;27;87868;-75
2021/12/31 10:40:43;;;;;;;0.30;0.30;;;15.40;99.90;15.50;100649.00;;;;5035264;27;87743;-74
2021/12/31 10:43:23;;;;;;;0.52;0.52;;;15.40;99.90;15.60;100640.00;;;;5012563;27;87983;-73
2021/12/31 10:46:08;;;;;;;0.47;0.45;;;15.50;99.90;15.60;100642.00;;;;5013461;27;87198;-74
2021/12/31 10:48:55;;;;;;;1.95;0.60;;;15.50;99.90;15.60;100641.00;;;;5027403;27;88916;-73